KAWM/AWM METAR and TAF weather

Enter ICAO airport designator
Station Type Date Time Source
KAWM METAR 2019/04/25 21:46 UTC NOAA

KAWM 252146Z AUTO 19008KT 4SM -RA BR SCT027 BKN070 OVC090 19/18 A2969 RMK AO2 LTG DSNT N RAB19 P0005 T01890183


Station Type Date Time Source
KAWM Decoded METAR 2019/04/25 21:46 UTC NOAA

WEST MEMPHIS MUNICIPAL AIRPORT, AR, United States (KAWM) 35-08N 090-14W
Apr 25, 2019 - 05:46 PM EDT / 2019.04.25 2146 UTC
Wind: from the S (190 degrees) at 9 MPH (8 KT):0
Visibility: 4 mile(s):0
Sky conditions: overcast
Weather: light rain; mist; Lightning observed
Precipitation last hour: 0.05 inches
Temperature: 66.0 F (18.9 C)
Dew Point: 64.9 F (18.3 C)
Relative Humidity: 96%
Pressure (altimeter): 29.69 in. Hg (1005 hPa)
ob: KAWM 252146Z AUTO 19008KT 4SM -RA BR SCT027 BKN070 OVC090 19/18 A2969 RMK AO2 LTG DSNT N RAB19 P0005 T01890183
cycle: 22

Station Type Date Time Source
KAWM TAF UTC NOAA

Error!

Example: see airport list